Time;durP1;ratioP1;P1;durP2;ratioP2;P2;SDS_P1;SDS_P2;PMS_P1;PMS_P2;Temp;Humidity;BMP_temperature;BMP_pressure;BME280_temperature;BME280_humidity;BME280_pressure;Samples;Min_cycle;Max_cycle;Signal;HPM_P1;HPM_P2
2023/07/28 00:01:35;;;;;;;0.45;0.32;;;;;;;;;;5035798;28;20033;-85
2023/07/28 00:04:04;;;;;;;0.20;0.10;;;;;;;;;;5035832;28;20018;-85
2023/07/28 00:06:30;;;;;;;0.10;0.10;;;;;;;;;;5036151;28;20549;-85
2023/07/28 00:08:56;;;;;;;0.20;0.20;;;;;;;;;;5035864;28;20065;-85
2023/07/28 00:11:22;;;;;;;0.43;0.40;;;;;;;;;;5035671;28;20021;-85
2023/07/28 00:13:48;;;;;;;1.88;0.75;;;;;;;;;;5034827;28;20025;-85
2023/07/28 00:16:14;;;;;;;0.38;0.38;;;;;;;;;;5035910;28;20112;-85
2023/07/28 00:18:40;;;;;;;0.17;0.17;;;;;;;;;;5035403;28;20064;-84
2023/07/28 00:21:06;;;;;;;0.55;0.43;;;;;;;;;;5035424;28;20053;-85
2023/07/28 00:23:32;;;;;;;0.93;0.93;;;;;;;;;;5035807;28;20017;-84
2023/07/28 00:25:58;;;;;;;0.90;0.50;;;;;;;;;;5035372;28;20048;-85
2023/07/28 00:28:24;;;;;;;0.20;0.20;;;;;;;;;;5034755;28;20104;-85
2023/07/28 00:30:50;;;;;;;0.22;0.22;;;;;;;;;;5035527;28;20033;-85
2023/07/28 00:33:17;;;;;;;0.13;0.13;;;;;;;;;;5035269;28;20026;-85
2023/07/28 00:35:43;;;;;;;13.45;1.08;;;;;;;;;;5035631;28;20029;-85
2023/07/28 00:38:09;;;;;;;0.20;0.20;;;;;;;;;;5035202;28;20080;-85
2023/07/28 00:40:35;;;;;;;0.08;0.08;;;;;;;;;;5035233;28;20060;-85
2023/07/28 00:43:01;;;;;;;0.32;0.32;;;;;;;;;;5034924;28;20064;-85
2023/07/28 00:45:28;;;;;;;0.20;0.20;;;;;;;;;;5035129;28;20030;-85
2023/07/28 00:47:57;;;;;;;1.10;0.65;;;;;;;;;;5034885;28;20494;-85
2023/07/28 00:50:23;;;;;;;0.20;0.20;;;;;;;;;;5034939;28;20041;-85
2023/07/28 00:52:49;;;;;;;0.17;0.17;;;;;;;;;;5035107;28;20440;-83
2023/07/28 00:55:16;;;;;;;0.17;0.17;;;;;;;;;;5034973;28;20033;-85
2023/07/28 00:57:42;;;;;;;0.10;0.10;;;;;;;;;;5033871;28;20478;-85
2023/07/28 01:00:08;;;;;;;0.40;0.40;;;;;;;;;;5034530;28;20748;-85
2023/07/28 01:02:34;;;;;;;0.73;0.70;;;;;;;;;;5034122;28;20029;-85
2023/07/28 01:05:00;;;;;;;0.57;0.57;;;;;;;;;;5034764;28;20025;-85
2023/07/28 01:07:28;;;;;;;0.38;0.38;;;;;;;;;;5034607;28;20382;-85
2023/07/28 01:10:01;;;;;;;0.32;0.32;;;;;;;;;;5034554;28;20088;-85
2023/07/28 01:12:27;;;;;;;0.20;0.20;;;;;;;;;;5034292;28;20121;-85
2023/07/28 01:14:53;;;;;;;0.30;0.30;;;;;;;;;;5034333;28;20049;-85
2023/07/28 01:17:19;;;;;;;0.10;0.10;;;;;;;;;;5034579;28;20042;-85
2023/07/28 01:19:45;;;;;;;0.10;0.10;;;;;;;;;;5034547;28;20029;-85
2023/07/28 01:22:29;;;;;;;0.70;0.70;;;;;;;;;;5034442;28;20029;-85
2023/07/28 01:25:01;;;;;;;0.43;0.38;;;;;;;;;;5033910;28;20037;-85
2023/07/28 01:27:28;;;;;;;0.28;0.28;;;;;;;;;;5034485;28;21130;-85
2023/07/28 01:29:54;;;;;;;1.08;0.85;;;;;;;;;;5034130;28;20037;-85
2023/07/28 01:32:20;;;;;;;0.10;0.10;;;;;;;;;;5034161;28;20032;-85
2023/07/28 01:34:46;;;;;;;0.10;0.10;;;;;;;;;;5033056;28;20472;-85
2023/07/28 01:37:12;;;;;;;0.20;0.20;;;;;;;;;;5034117;28;20026;-85
2023/07/28 01:39:38;;;;;;;4.18;0.88;;;;;;;;;;5033802;28;20393;-85
2023/07/28 01:42:04;;;;;;;0.35;0.32;;;;;;;;;;5034294;28;20033;-85
2023/07/28 01:44:30;;;;;;;0.20;0.20;;;;;;;;;;5034211;28;20053;-85
2023/07/28 01:46:56;;;;;;;1.05;0.17;;;;;;;;;;5033993;28;20013;-85
2023/07/28 01:49:22;;;;;;;0.40;0.40;;;;;;;;;;5033724;28;20477;-85
2023/07/28 01:51:48;;;;;;;0.60;0.60;;;;;;;;;;5033810;28;20022;-85
2023/07/28 01:54:14;;;;;;;0.50;0.50;;;;;;;;;;5033679;28;20025;-85
2023/07/28 01:56:40;;;;;;;0.55;0.15;;;;;;;;;;5034129;28;20494;-85
2023/07/28 01:59:06;;;;;;;0.38;0.38;;;;;;;;;;5033598;28;20031;-85
2023/07/28 02:01:32;;;;;;;1.08;0.68;;;;;;;;;;5033608;28;20025;-85
2023/07/28 02:03:58;;;;;;;0.10;0.10;;;;;;;;;;5033586;28;20061;-85
2023/07/28 02:06:24;;;;;;;0.20;0.20;;;;;;;;;;5032305;28;20025;-85
2023/07/28 02:08:50;;;;;;;4.22;1.52;;;;;;;;;;5032984;28;20079;-85
2023/07/28 02:11:16;;;;;;;0.35;0.35;;;;;;;;;;5033406;28;20112;-85
2023/07/28 02:13:42;;;;;;;0.45;0.45;;;;;;;;;;5033305;28;20033;-85
2023/07/28 02:16:08;;;;;;;0.30;0.30;;;;;;;;;;5033629;28;20033;-85
2023/07/28 02:18:34;;;;;;;0.35;0.35;;;;;;;;;;5033329;28;20033;-85
2023/07/28 02:21:00;;;;;;;0.70;0.70;;;;;;;;;;5033376;28;20382;-85
2023/07/28 02:23:26;;;;;;;0.60;0.60;;;;;;;;;;5033175;28;20053;-85
2023/07/28 02:25:52;;;;;;;0.45;0.45;;;;;;;;;;5033249;28;20029;-85
2023/07/28 02:28:18;;;;;;;0.40;0.40;;;;;;;;;;5032853;28;20474;-85
2023/07/28 02:30:44;;;;;;;0.57;0.57;;;;;;;;;;5033084;28;20068;-85
2023/07/28 02:33:10;;;;;;;10.32;0.70;;;;;;;;;;5033460;28;20096;-85
2023/07/28 02:35:36;;;;;;;0.38;0.38;;;;;;;;;;5033113;28;20037;-85
2023/07/28 02:38:02;;;;;;;0.52;0.52;;;;;;;;;;5032590;28;20021;-85
2023/07/28 02:40:28;;;;;;;0.17;0.17;;;;;;;;;;5032922;28;20075;-85
2023/07/28 02:42:54;;;;;;;1.48;0.98;;;;;;;;;;5033033;28;20029;-85
2023/07/28 02:45:20;;;;;;;2.28;0.75;;;;;;;;;;5032815;28;20441;-85
2023/07/28 02:47:46;;;;;;;0.50;0.50;;;;;;;;;;5033218;28;20470;-85
2023/07/28 02:50:12;;;;;;;0.57;0.47;;;;;;;;;;5032861;28;20040;-85
2023/07/28 02:52:38;;;;;;;0.20;0.20;;;;;;;;;;5032458;28;20083;-85
2023/07/28 02:55:04;;;;;;;1.40;0.85;;;;;;;;;;5032815;28;20032;-85
2023/07/28 02:57:30;;;;;;;0.60;0.60;;;;;;;;;;5032528;28;20100;-85
2023/07/28 02:59:56;;;;;;;0.52;0.52;;;;;;;;;;5032997;28;20520;-85
2023/07/28 03:02:22;;;;;;;2.10;1.13;;;;;;;;;;5032801;28;20100;-85
2023/07/28 03:04:48;;;;;;;0.20;0.20;;;;;;;;;;5032606;28;20100;-85
2023/07/28 03:07:14;;;;;;;0.30;0.30;;;;;;;;;;5032217;28;20033;-85
2023/07/28 03:09:40;;;;;;;0.32;0.32;;;;;;;;;;5032765;28;20037;-85
2023/07/28 03:12:06;;;;;;;1.08;0.50;;;;;;;;;;5032277;28;20029;-85
2023/07/28 03:14:32;;;;;;;0.88;0.80;;;;;;;;;;5032380;28;20039;-85
2023/07/28 03:16:58;;;;;;;0.88;0.88;;;;;;;;;;5032277;28;20046;-85
2023/07/28 03:19:24;;;;;;;0.45;0.40;;;;;;;;;;5032175;28;20022;-85
2023/07/28 03:21:50;;;;;;;0.30;0.30;;;;;;;;;;5032020;28;20124;-85
2023/07/28 03:24:16;;;;;;;1.20;0.55;;;;;;;;;;5032047;28;20026;-85
2023/07/28 03:26:42;;;;;;;0.47;0.47;;;;;;;;;;5031626;28;20554;-85
2023/07/28 03:29:08;;;;;;;0.75;0.40;;;;;;;;;;5032501;28;20398;-85
2023/07/28 03:31:35;;;;;;;0.55;0.55;;;;;;;;;;5032108;28;20033;-85
2023/07/28 03:34:02;;;;;;;6.22;1.48;;;;;;;;;;5030880;28;20055;-85
2023/07/28 03:36:28;;;;;;;1.65;1.00;;;;;;;;;;5031807;28;20498;-85
2023/07/28 03:38:54;;;;;;;1.48;1.05;;;;;;;;;;5032061;28;20035;-85
2023/07/28 03:41:20;;;;;;;0.75;0.50;;;;;;;;;;5031939;28;20035;-85
2023/07/28 03:43:46;;;;;;;0.88;0.88;;;;;;;;;;5031120;28;20018;-85
2023/07/28 03:46:12;;;;;;;0.90;0.80;;;;;;;;;;5030815;28;20025;-85
2023/07/28 03:48:38;;;;;;;0.38;0.38;;;;;;;;;;5031640;28;20113;-84
2023/07/28 03:51:05;;;;;;;0.40;0.40;;;;;;;;;;5031917;28;20482;-84
2023/07/28 03:53:31;;;;;;;1.08;0.65;;;;;;;;;;5032127;28;20022;-84
2023/07/28 03:55:58;;;;;;;0.68;0.68;;;;;;;;;;5031871;28;20036;-86
2023/07/28 03:58:26;;;;;;;1.15;1.05;;;;;;;;;;5031890;28;20022;-85
2023/07/28 04:00:53;;;;;;;1.65;1.17;;;;;;;;;;5032102;28;20025;-85
2023/07/28 04:03:19;;;;;;;0.70;0.70;;;;;;;;;;5032195;28;20022;-86
2023/07/28 04:05:46;;;;;;;0.63;0.63;;;;;;;;;;5031523;28;20111;-85
2023/07/28 04:08:12;;;;;;;0.15;0.15;;;;;;;;;;5031987;28;20076;-84
2023/07/28 04:10:38;;;;;;;0.20;0.20;;;;;;;;;;5029958;28;20037;-85
2023/07/28 04:13:04;;;;;;;0.63;0.63;;;;;;;;;;5031426;28;20111;-85
2023/07/28 04:15:30;;;;;;;0.57;0.57;;;;;;;;;;5031287;28;20029;-90
2023/07/28 04:17:55;;;;;;;0.40;0.40;;;;;;;;;;5031892;28;20091;-89
2023/07/28 04:20:21;;;;;;;1.38;0.70;;;;;;;;;;5031674;28;20025;-89
2023/07/28 04:22:48;;;;;;;1.10;0.95;;;;;;;;;;5032579;28;20044;-89
2023/07/28 04:25:14;;;;;;;0.32;0.32;;;;;;;;;;5032025;28;20466;-88
2023/07/28 04:27:40;;;;;;;0.70;0.70;;;;;;;;;;5031849;28;20104;-89
2023/07/28 04:30:06;;;;;;;0.47;0.20;;;;;;;;;;5032151;28;20112;-89
2023/07/28 04:32:32;;;;;;;0.35;0.35;;;;;;;;;;5032257;28;20029;-89
2023/07/28 04:34:58;;;;;;;1.63;0.85;;;;;;;;;;5032351;28;20525;-89
2023/07/28 04:37:24;;;;;;;0.50;0.30;;;;;;;;;;5032063;28;20029;-90
2023/07/28 04:39:50;;;;;;;0.32;0.28;;;;;;;;;;5036455;28;20021;-90
2023/07/28 04:42:16;;;;;;;0.80;0.30;;;;;;;;;;5035812;28;20030;-89
2023/07/28 04:44:42;;;;;;;0.35;0.35;;;;;;;;;;5035875;28;20087;-88
2023/07/28 04:47:08;;;;;;;0.75;0.50;;;;;;;;;;5035685;28;20026;-89
2023/07/28 04:49:34;;;;;;;2.47;0.90;;;;;;;;;;5036063;28;20036;-91
2023/07/28 04:52:00;;;;;;;0.70;0.55;;;;;;;;;;5034556;28;20460;-93
2023/07/28 04:54:26;;;;;;;0.57;0.57;;;;;;;;;;5034777;28;20052;-86
2023/07/28 04:56:53;;;;;;;0.50;0.38;;;;;;;;;;5034863;28;20052;-86
2023/07/28 04:59:19;;;;;;;0.20;0.20;;;;;;;;;;5034519;28;20014;-85
2023/07/28 05:01:45;;;;;;;2.47;0.73;;;;;;;;;;5034832;28;20029;-86
2023/07/28 05:04:11;;;;;;;0.75;0.73;;;;;;;;;;5034741;28;20022;-86
2023/07/28 05:06:37;;;;;;;0.50;0.32;;;;;;;;;;5034867;28;20175;-86
2023/07/28 05:09:03;;;;;;;0.20;0.20;;;;;;;;;;5034554;28;20045;-86
2023/07/28 05:11:29;;;;;;;0.38;0.38;;;;;;;;;;5035232;28;20385;-86
2023/07/28 05:13:55;;;;;;;0.85;0.60;;;;;;;;;;5034876;28;20057;-86
2023/07/28 05:16:21;;;;;;;0.50;0.50;;;;;;;;;;5032468;28;20044;-87
2023/07/28 05:18:47;;;;;;;0.47;0.47;;;;;;;;;;5032422;28;20072;-86
2023/07/28 05:21:13;;;;;;;0.60;0.60;;;;;;;;;;5014540;28;20044;-86
2023/07/28 05:23:39;;;;;;;1.45;0.80;;;;;;;;;;5021255;28;20021;-86
2023/07/28 05:26:05;;;;;;;0.40;0.30;;;;;;;;;;5034273;28;20076;-86
2023/07/28 05:28:35;;;;;;;0.95;0.90;;;;;;;;;;5034418;28;20456;-86
2023/07/28 05:31:07;;;;;;;0.20;0.20;;;;;;;;;;5034256;28;20099;-86
2023/07/28 05:33:33;;;;;;;0.20;0.20;;;;;;;;;;5034146;28;20050;-86
2023/07/28 05:36:03;;;;;;;0.50;0.50;;;;;;;;;;5034000;28;20465;-86
2023/07/28 05:38:29;;;;;;;0.30;0.30;;;;;;;;;;5032721;28;20033;-86
2023/07/28 05:41:00;;;;;;;0.20;0.20;;;;;;;;;;5034118;28;20029;-86
2023/07/28 05:43:27;;;;;;;0.40;0.40;;;;;;;;;;5034390;28;20045;-86
2023/07/28 05:45:53;;;;;;;0.28;0.20;;;;;;;;;;5033754;28;20112;-86
2023/07/28 05:48:19;;;;;;;0.28;0.28;;;;;;;;;;5033604;28;20105;-86
2023/07/28 05:50:45;;;;;;;0.60;0.57;;;;;;;;;;5033290;28;20029;-86
2023/07/28 05:53:11;;;;;;;0.40;0.40;;;;;;;;;;5016125;28;20030;-86
2023/07/28 05:55:37;;;;;;;0.30;0.30;;;;;;;;;;5015941;28;20028;-86
2023/07/28 05:58:03;;;;;;;0.35;0.35;;;;;;;;;;5013929;28;20045;-86
2023/07/28 06:00:29;;;;;;;0.63;0.43;;;;;;;;;;5013536;28;20026;-86
2023/07/28 06:02:55;;;;;;;0.20;0.20;;;;;;;;;;5012536;28;20470;-86
2023/07/28 06:05:21;;;;;;;0.20;0.20;;;;;;;;;;5014125;28;20132;-86
2023/07/28 06:07:47;;;;;;;0.10;0.10;;;;;;;;;;5013494;28;20033;-86
2023/07/28 06:10:13;;;;;;;1.27;0.30;;;;;;;;;;5013623;28;20363;-86
2023/07/28 06:12:39;;;;;;;0.10;0.10;;;;;;;;;;5013753;28;20048;-86
2023/07/28 06:15:06;;;;;;;0.35;0.35;;;;;;;;;;5013680;28;20026;-86
2023/07/28 06:17:32;;;;;;;0.30;0.30;;;;;;;;;;5013339;28;20141;-86
2023/07/28 06:19:59;;;;;;;0.05;0.05;;;;;;;;;;5013638;28;20076;-86
2023/07/28 06:22:25;;;;;;;0.20;0.20;;;;;;;;;;5013392;28;20101;-86
2023/07/28 06:24:51;;;;;;;0.35;0.35;;;;;;;;;;5030220;28;20049;-86
2023/07/28 06:27:17;;;;;;;0.20;0.20;;;;;;;;;;5033236;28;20497;-86
2023/07/28 06:29:43;;;;;;;0.40;0.40;;;;;;;;;;5032788;28;20095;-86
2023/07/28 06:32:09;;;;;;;0.00;0.00;;;;;;;;;;5033131;28;20393;-86
2023/07/28 06:34:35;;;;;;;0.30;0.30;;;;;;;;;;5031796;28;20025;-86
2023/07/28 06:37:01;;;;;;;0.30;0.30;;;;;;;;;;5032984;28;20033;-86
2023/07/28 06:39:27;;;;;;;0.10;0.10;;;;;;;;;;5032946;28;20018;-86
2023/07/28 06:41:53;;;;;;;0.30;0.30;;;;;;;;;;5032016;28;20394;-86
2023/07/28 06:44:19;;;;;;;0.90;0.90;;;;;;;;;;5032610;28;20028;-85
2023/07/28 06:46:45;;;;;;;0.40;0.40;;;;;;;;;;5032882;28;20448;-86
2023/07/28 06:49:11;;;;;;;0.20;0.20;;;;;;;;;;5033019;28;20057;-86
2023/07/28 06:51:37;;;;;;;1.10;0.70;;;;;;;;;;5034568;28;20090;-88
2023/07/28 06:54:03;;;;;;;0.65;0.30;;;;;;;;;;5052712;28;20564;-89
2023/07/28 06:56:29;;;;;;;0.63;0.47;;;;;;;;;;5048385;28;20028;-85
2023/07/28 06:58:55;;;;;;;1.17;1.05;;;;;;;;;;5050765;28;20074;-89
2023/07/28 07:01:22;;;;;;;0.10;0.10;;;;;;;;;;5052552;28;20098;-89
2023/07/28 07:03:48;;;;;;;0.17;0.17;;;;;;;;;;5046477;28;20102;-89
2023/07/28 07:06:13;;;;;;;0.82;0.38;;;;;;;;;;5032684;28;20064;-89
2023/07/28 07:08:39;;;;;;;0.20;0.20;;;;;;;;;;5031904;28;20022;-89
2023/07/28 07:11:05;;;;;;;0.52;0.50;;;;;;;;;;5043629;28;20416;-89
2023/07/28 07:13:31;;;;;;;0.28;0.28;;;;;;;;;;5052270;28;20029;-89
2023/07/28 07:15:57;;;;;;;0.85;0.45;;;;;;;;;;5049626;28;20060;-88
2023/07/28 07:18:23;;;;;;;0.50;0.50;;;;;;;;;;5032122;28;20073;-90
2023/07/28 07:20:51;;;;;;;0.70;0.47;;;;;;;;;;5032880;28;20087;-87
2023/07/28 07:23:17;;;;;;;0.40;0.35;;;;;;;;;;5032492;28;20022;-87
2023/07/28 07:25:42;;;;;;;0.28;0.28;;;;;;;;;;5032087;28;20017;-87
2023/07/28 07:28:08;;;;;;;0.30;0.30;;;;;;;;;;5031932;28;20037;-87
2023/07/28 07:30:35;;;;;;;0.20;0.20;;;;;;;;;;5032094;28;20095;-87
2023/07/28 07:33:01;;;;;;;0.28;0.28;;;;;;;;;;5032127;28;20021;-87
2023/07/28 07:35:27;;;;;;;0.30;0.30;;;;;;;;;;5032352;28;20032;-87
2023/07/28 07:37:53;;;;;;;0.55;0.55;;;;;;;;;;5032446;28;20436;-87
2023/07/28 07:40:19;;;;;;;0.20;0.20;;;;;;;;;;5030732;28;20113;-87
2023/07/28 07:42:49;;;;;;;1.30;0.80;;;;;;;;;;5031740;28;20022;-86
2023/07/28 07:45:15;;;;;;;0.65;0.52;;;;;;;;;;5032459;28;20068;-87
2023/07/28 07:47:42;;;;;;;0.45;0.45;;;;;;;;;;5031947;28;20086;-87
2023/07/28 07:50:09;;;;;;;0.30;0.30;;;;;;;;;;5032187;28;20064;-87
2023/07/28 07:52:35;;;;;;;0.40;0.40;;;;;;;;;;5031923;28;20378;-86
2023/07/28 07:55:02;;;;;;;0.22;0.22;;;;;;;;;;5032058;28;20525;-87
2023/07/28 07:57:28;;;;;;;0.20;0.20;;;;;;;;;;5031583;28;20108;-87
2023/07/28 07:59:54;;;;;;;0.38;0.38;;;;;;;;;;5031949;28;20482;-86
2023/07/28 08:02:20;;;;;;;1.02;0.45;;;;;;;;;;5032231;28;20097;-87
2023/07/28 08:04:46;;;;;;;0.70;0.55;;;;;;;;;;5030509;28;20033;-87
2023/07/28 08:07:12;;;;;;;0.20;0.20;;;;;;;;;;5031654;28;20466;-87
2023/07/28 08:09:38;;;;;;;0.28;0.28;;;;;;;;;;5032264;28;20037;-87
2023/07/28 08:12:04;;;;;;;0.20;0.20;;;;;;;;;;5034086;28;20052;-87
2023/07/28 08:14:30;;;;;;;0.38;0.38;;;;;;;;;;5036089;28;20385;-87
2023/07/28 08:16:56;;;;;;;0.40;0.40;;;;;;;;;;5035311;28;20050;-87
2023/07/28 08:19:22;;;;;;;0.32;0.32;;;;;;;;;;5035533;28;20033;-87
2023/07/28 08:21:48;;;;;;;0.30;0.30;;;;;;;;;;5035764;28;20082;-87
2023/07/28 08:24:14;;;;;;;0.85;0.60;;;;;;;;;;5035485;28;20057;-87
2023/07/28 08:26:40;;;;;;;9.63;1.38;;;;;;;;;;5034773;28;20026;-87
2023/07/28 08:29:06;;;;;;;0.82;0.47;;;;;;;;;;5035086;28;20094;-87
2023/07/28 08:31:32;;;;;;;0.03;0.03;;;;;;;;;;5026478;28;20030;-87
2023/07/28 08:33:58;;;;;;;0.30;0.30;;;;;;;;;;5035332;28;20033;-87
2023/07/28 08:36:24;;;;;;;0.10;0.10;;;;;;;;;;5035176;28;20028;-87
2023/07/28 08:38:50;;;;;;;0.20;0.20;;;;;;;;;;5035560;28;20036;-87
2023/07/28 08:41:16;;;;;;;0.20;0.20;;;;;;;;;;5033700;28;20485;-87
2023/07/28 08:43:43;;;;;;;0.57;0.57;;;;;;;;;;5035077;28;20555;-87
2023/07/28 08:46:09;;;;;;;0.10;0.10;;;;;;;;;;5035145;28;20022;-87
2023/07/28 08:48:35;;;;;;;0.80;0.30;;;;;;;;;;5034091;28;20033;-87
2023/07/28 08:51:01;;;;;;;0.10;0.10;;;;;;;;;;5051769;28;20029;-87
2023/07/28 08:53:27;;;;;;;0.15;0.15;;;;;;;;;;5048825;28;20026;-87
2023/07/28 08:55:53;;;;;;;0.22;0.22;;;;;;;;;;5032459;28;20535;-85
2023/07/28 08:58:19;;;;;;;0.20;0.20;;;;;;;;;;5034981;28;20013;-84
2023/07/28 09:00:48;;;;;;;0.45;0.45;;;;;;;;;;5035246;28;20029;-85
2023/07/28 09:03:15;;;;;;;0.00;0.00;;;;;;;;;;5034964;28;20455;-86
2023/07/28 09:05:42;;;;;;;0.13;0.13;;;;;;;;;;5036511;28;20478;-85
2023/07/28 09:08:08;;;;;;;0.52;0.40;;;;;;;;;;5049853;28;20040;-85
2023/07/28 09:10:51;;;;;;;0.80;0.80;;;;;;;;;;5054160;28;20033;-85
2023/07/28 09:13:17;;;;;;;0.20;0.20;;;;;;;;;;5052794;28;20033;-85
2023/07/28 09:15:44;;;;;;;0.17;0.17;;;;;;;;;;5034936;28;20068;-85
2023/07/28 09:18:10;;;;;;;0.15;0.15;;;;;;;;;;5045661;28;20501;-85
2023/07/28 09:20:37;;;;;;;0.25;0.25;;;;;;;;;;5054313;28;20393;-86
2023/07/28 09:23:05;;;;;;;0.20;0.20;;;;;;;;;;5048110;28;20032;-86
2023/07/28 09:25:31;;;;;;;0.10;0.10;;;;;;;;;;5051094;28;20044;-86
2023/07/28 09:27:57;;;;;;;0.00;0.00;;;;;;;;;;5041135;28;20096;-86
2023/07/28 09:30:24;;;;;;;0.47;0.30;;;;;;;;;;5034259;28;20048;-85
2023/07/28 09:32:51;;;;;;;0.32;0.32;;;;;;;;;;5035808;28;20163;-86
2023/07/28 09:35:17;;;;;;;0.20;0.20;;;;;;;;;;5038865;28;20029;-86
2023/07/28 09:37:44;;;;;;;0.10;0.10;;;;;;;;;;5034039;28;20108;-86
2023/07/28 09:40:15;;;;;;;0.10;0.10;;;;;;;;;;5033675;28;20021;-86
2023/07/28 09:42:42;;;;;;;0.40;0.40;;;;;;;;;;5034047;28;20033;-86
2023/07/28 09:45:10;;;;;;;0.20;0.20;;;;;;;;;;5032569;28;20108;-85
2023/07/28 09:47:36;;;;;;;0.10;0.10;;;;;;;;;;5033839;28;20080;-86
2023/07/28 09:50:08;;;;;;;0.40;0.40;;;;;;;;;;5033397;28;20037;-85
2023/07/28 09:52:37;;;;;;;0.20;0.20;;;;;;;;;;5033534;28;20025;-86
2023/07/28 09:55:08;;;;;;;1.13;0.25;;;;;;;;;;5033709;28;20041;-85
2023/07/28 09:57:37;;;;;;;0.30;0.30;;;;;;;;;;5033675;28;20450;-86
2023/07/28 10:00:05;;;;;;;0.10;0.10;;;;;;;;;;5034111;28;20068;-89
2023/07/28 10:02:31;;;;;;;0.17;0.17;;;;;;;;;;5045620;28;20032;-85
2023/07/28 10:04:57;;;;;;;0.75;0.75;;;;;;;;;;5046289;28;20048;-90
2023/07/28 10:07:24;;;;;;;0.10;0.10;;;;;;;;;;5032868;28;20052;-90
2023/07/28 10:09:51;;;;;;;0.50;0.47;;;;;;;;;;5039665;28;20037;-88
2023/07/28 10:12:25;;;;;;;0.30;0.30;;;;;;;;;;5040919;28;20025;-90
2023/07/28 10:15:00;;;;;;;0.28;0.28;;;;;;;;;;5033123;28;20036;-90
2023/07/28 10:17:32;;;;;;;0.03;0.03;;;;;;;;;;5033645;28;20052;-89
2023/07/28 10:19:58;;;;;;;0.20;0.20;;;;;;;;;;5047577;28;20033;-89
2023/07/28 10:22:27;;;;;;;0.10;0.10;;;;;;;;;;5045517;28;20026;-90
2023/07/28 10:24:54;;;;;;;0.10;0.10;;;;;;;;;;5034874;28;20029;-89
2023/07/28 10:27:36;;;;;;;0.20;0.20;;;;;;;;;;5033774;28;20048;-90
2023/07/28 10:30:04;;;;;;;0.52;0.52;;;;;;;;;;5032297;28;20474;-89
2023/07/28 10:32:38;;;;;;;0.20;0.20;;;;;;;;;;5037427;28;20022;-89
2023/07/28 10:35:08;;;;;;;0.15;0.15;;;;;;;;;;5032956;28;20072;-89
2023/07/28 10:37:36;;;;;;;0.10;0.10;;;;;;;;;;5033269;28;20021;-89
2023/07/28 10:40:22;;;;;;;0.30;0.30;;;;;;;;;;5033336;28;20021;-89
2023/07/28 10:42:48;;;;;;;0.52;0.15;;;;;;;;;;5031952;28;20033;-89
2023/07/28 10:45:15;;;;;;;2.78;1.35;;;;;;;;;;5032847;28;20030;-90
2023/07/28 10:47:41;;;;;;;0.20;0.20;;;;;;;;;;5032387;28;20116;-91
2023/07/28 10:50:09;;;;;;;0.30;0.30;;;;;;;;;;5039314;28;20037;-90
2023/07/28 10:52:39;;;;;;;0.52;0.52;;;;;;;;;;5042077;28;20020;-89
2023/07/28 10:55:05;;;;;;;0.38;0.38;;;;;;;;;;5045251;28;20025;-89
2023/07/28 10:57:31;;;;;;;0.20;0.20;;;;;;;;;;5032919;28;20022;-89
2023/07/28 11:00:00;;;;;;;0.28;0.28;;;;;;;;;;5033199;28;20059;-88
2023/07/28 11:02:28;;;;;;;0.35;0.35;;;;;;;;;;5039892;28;20021;-88
2023/07/28 11:04:54;;;;;;;0.68;0.60;;;;;;;;;;5052468;28;20040;-89
2023/07/28 11:07:20;;;;;;;0.50;0.50;;;;;;;;;;5046887;28;20021;-90
2023/07/28 11:09:46;;;;;;;0.30;0.30;;;;;;;;;;5036494;28;20038;-90
2023/07/28 11:12:13;;;;;;;0.10;0.10;;;;;;;;;;5031157;28;20100;-90
2023/07/28 11:14:39;;;;;;;2.15;0.82;;;;;;;;;;5031494;28;20037;-90
2023/07/28 11:17:06;;;;;;;0.73;0.73;;;;;;;;;;5031490;28;20540;-89
2023/07/28 11:19:34;;;;;;;0.20;0.20;;;;;;;;;;5032124;28;20037;-89
2023/07/28 11:22:00;;;;;;;0.73;0.35;;;;;;;;;;5032985;28;20401;-90
2023/07/28 11:24:26;;;;;;;1.27;0.60;;;;;;;;;;5032681;28;20101;-90
2023/07/28 11:26:53;;;;;;;0.13;0.13;;;;;;;;;;5042286;28;20082;-89
2023/07/28 11:29:19;;;;;;;0.68;0.68;;;;;;;;;;5032661;28;20045;-88
2023/07/28 11:31:45;;;;;;;0.45;0.45;;;;;;;;;;5032474;28;20068;-87
2023/07/28 11:34:18;;;;;;;0.73;0.60;;;;;;;;;;5032339;28;20018;-93
2023/07/28 11:36:44;;;;;;;0.95;0.32;;;;;;;;;;5033217;28;20413;-90
2023/07/28 11:39:11;;;;;;;0.98;0.17;;;;;;;;;;5032722;28;20060;-91
2023/07/28 11:41:37;;;;;;;4.55;0.85;;;;;;;;;;5046107;28;20025;-91
2023/07/28 11:44:04;;;;;;;0.10;0.10;;;;;;;;;;5049494;28;20484;-91
2023/07/28 11:46:38;;;;;;;0.10;0.10;;;;;;;;;;5037032;28;20053;-91
2023/07/28 11:49:11;;;;;;;0.00;0.00;;;;;;;;;;5036534;28;20029;-90
2023/07/28 11:51:48;;;;;;;0.08;0.08;;;;;;;;;;5035209;28;20029;-91
2023/07/28 11:54:15;;;;;;;0.10;0.10;;;;;;;;;;5036385;28;20452;-91
2023/07/28 11:56:43;;;;;;;0.35;0.35;;;;;;;;;;5035278;28;20110;-91
2023/07/28 11:59:09;;;;;;;0.38;0.20;;;;;;;;;;5036480;28;20117;-91
2023/07/28 12:01:35;;;;;;;0.30;0.30;;;;;;;;;;5036900;28;20409;-91
2023/07/28 12:04:19;;;;;;;0.00;0.00;;;;;;;;;;5035989;28;20017;-91
2023/07/28 12:07:02;;;;;;;0.17;0.17;;;;;;;;;;5036397;28;20486;-92
2023/07/28 12:09:29;;;;;;;0.10;0.10;;;;;;;;;;5035107;28;20077;-92
2023/07/28 12:11:54;;;;;;;0.80;0.40;;;;;;;;;;5036714;28;20025;-91
2023/07/28 12:14:34;;;;;;;0.10;0.10;;;;;;;;;;5036510;28;20029;-92
2023/07/28 12:17:01;;;;;;;0.10;0.10;;;;;;;;;;5036341;28;20041;-92
2023/07/28 12:19:27;;;;;;;0.20;0.20;;;;;;;;;;5035932;28;20573;-91
2023/07/28 12:21:53;;;;;;;0.10;0.10;;;;;;;;;;5035354;28;20116;-92
2023/07/28 12:24:19;;;;;;;0.30;0.30;;;;;;;;;;5035018;28;20532;-91
2023/07/28 12:26:50;;;;;;;0.10;0.10;;;;;;;;;;5034802;28;20037;-91
2023/07/28 12:29:16;;;;;;;2.42;0.45;;;;;;;;;;5036006;28;20065;-92
2023/07/28 12:31:42;;;;;;;0.68;0.68;;;;;;;;;;5034720;28;20036;-92
2023/07/28 12:34:08;;;;;;;0.13;0.13;;;;;;;;;;5036174;28;20040;-92
2023/07/28 12:36:34;;;;;;;0.20;0.20;;;;;;;;;;5035938;28;20064;-91
2023/07/28 12:39:00;;;;;;;0.17;0.17;;;;;;;;;;5035801;28;20028;-91
2023/07/28 12:41:26;;;;;;;0.13;0.13;;;;;;;;;;5035798;28;20025;-91
2023/07/28 12:43:52;;;;;;;0.25;0.25;;;;;;;;;;5036021;28;20104;-91
2023/07/28 12:46:18;;;;;;;0.40;0.40;;;;;;;;;;5034935;28;20029;-91
2023/07/28 12:48:44;;;;;;;0.20;0.20;;;;;;;;;;5035527;28;20026;-91
2023/07/28 12:51:10;;;;;;;0.08;0.08;;;;;;;;;;5034142;28;20148;-91
2023/07/28 12:53:36;;;;;;;0.20;0.15;;;;;;;;;;5034980;28;20022;-91
2023/07/28 12:56:03;;;;;;;0.43;0.40;;;;;;;;;;5035445;28;20047;-90
2023/07/28 12:58:31;;;;;;;0.22;0.22;;;;;;;;;;5034770;28;20024;-91
2023/07/28 13:00:58;;;;;;;2.22;0.80;;;;;;;;;;5034987;28;20025;-91
2023/07/28 13:03:24;;;;;;;0.10;0.10;;;;;;;;;;5035448;28;20544;-91
2023/07/28 13:05:50;;;;;;;0.47;0.47;;;;;;;;;;5035189;28;20029;-91
2023/07/28 13:08:16;;;;;;;0.22;0.22;;;;;;;;;;5035554;28;20454;-91
2023/07/28 13:10:42;;;;;;;0.15;0.15;;;;;;;;;;5034130;28;20048;-91
2023/07/28 13:13:08;;;;;;;0.10;0.10;;;;;;;;;;5035143;28;20021;-91
2023/07/28 13:15:34;;;;;;;0.65;0.52;;;;;;;;;;5034993;28;20111;-91
2023/07/28 13:18:00;;;;;;;0.20;0.20;;;;;;;;;;5034820;28;20465;-91
2023/07/28 13:20:26;;;;;;;0.10;0.10;;;;;;;;;;5035497;28;20116;-90
2023/07/28 13:22:52;;;;;;;0.28;0.28;;;;;;;;;;5035025;28;20032;-91
2023/07/28 13:25:18;;;;;;;0.50;0.50;;;;;;;;;;5035394;28;20044;-91
2023/07/28 13:27:44;;;;;;;0.55;0.55;;;;;;;;;;5034856;28;20033;-91
2023/07/28 13:30:10;;;;;;;0.20;0.20;;;;;;;;;;5034476;28;20069;-91
2023/07/28 13:32:36;;;;;;;0.20;0.20;;;;;;;;;;5035018;28;20095;-91
2023/07/28 13:35:02;;;;;;;0.10;0.10;;;;;;;;;;5034762;28;20478;-91
2023/07/28 13:37:28;;;;;;;0.20;0.17;;;;;;;;;;5035025;28;20084;-91
2023/07/28 13:39:54;;;;;;;0.40;0.40;;;;;;;;;;5022545;28;20498;-91
2023/07/28 13:42:20;;;;;;;0.03;0.03;;;;;;;;;;5015503;28;20022;-91
2023/07/28 13:44:47;;;;;;;0.10;0.10;;;;;;;;;;5036867;28;20052;-86
2023/07/28 13:47:13;;;;;;;0.28;0.28;;;;;;;;;;5034415;28;20113;-86
2023/07/28 13:49:39;;;;;;;0.22;0.22;;;;;;;;;;5033876;28;20498;-86
2023/07/28 13:52:05;;;;;;;0.10;0.10;;;;;;;;;;5051723;28;20025;-86
2023/07/28 13:54:31;;;;;;;0.40;0.40;;;;;;;;;;5034433;28;20086;-86
2023/07/28 13:56:57;;;;;;;0.82;0.65;;;;;;;;;;5053678;28;20053;-86
2023/07/28 13:59:23;;;;;;;0.10;0.10;;;;;;;;;;5052960;28;20496;-86
2023/07/28 14:01:52;;;;;;;0.30;0.30;;;;;;;;;;5053717;28;20130;-86
2023/07/28 14:04:18;;;;;;;0.32;0.32;;;;;;;;;;5053875;28;20029;-86
2023/07/28 14:06:44;;;;;;;0.30;0.30;;;;;;;;;;5053448;28;20029;-85
2023/07/28 14:09:10;;;;;;;0.30;0.30;;;;;;;;;;5053146;28;20039;-86
2023/07/28 14:11:36;;;;;;;0.15;0.15;;;;;;;;;;5053423;28;20033;-86
2023/07/28 14:14:02;;;;;;;0.40;0.40;;;;;;;;;;5053070;28;20083;-86
2023/07/28 14:16:28;;;;;;;0.20;0.20;;;;;;;;;;5053403;28;20044;-86
2023/07/28 14:18:54;;;;;;;0.75;0.57;;;;;;;;;;5053265;28;20087;-86
2023/07/28 14:21:20;;;;;;;0.32;0.32;;;;;;;;;;5053291;28;20029;-86
2023/07/28 14:23:46;;;;;;;0.73;0.73;;;;;;;;;;5042487;28;20033;-86
2023/07/28 14:26:12;;;;;;;0.10;0.10;;;;;;;;;;5033543;28;20026;-86
2023/07/28 14:28:38;;;;;;;0.30;0.28;;;;;;;;;;5032669;28;20032;-86
2023/07/28 14:31:04;;;;;;;0.10;0.10;;;;;;;;;;5032010;28;20073;-86
2023/07/28 14:33:30;;;;;;;0.10;0.10;;;;;;;;;;5033451;28;20022;-86
2023/07/28 14:35:56;;;;;;;0.45;0.45;;;;;;;;;;5033096;28;20040;-86
2023/07/28 14:38:22;;;;;;;0.50;0.43;;;;;;;;;;5032938;28;20397;-86
2023/07/28 14:40:51;;;;;;;0.30;0.30;;;;;;;;;;5033116;28;20035;-86